Time;durP1;ratioP1;P1;durP2;ratioP2;P2;SDS_P1;SDS_P2;PMS_P1;PMS_P2;Temp;Humidity;BMP_temperature;BMP_pressure;BME280_temperature;BME280_humidity;BME280_pressure;Samples;Min_cycle;Max_cycle;Signal;HPM_P1;HPM_P2
2022/12/05 00:01:30;;;;;;;23.00;17.98;;;;;;;2.03;100.00;101706.66;5038538;28;20361;-59
2022/12/05 00:04:01;;;;;;;19.45;15.13;;;;;;;2.06;100.00;101714.44;5038119;28;20036;-59
2022/12/05 00:06:28;;;;;;;16.27;13.32;;;;;;;2.00;100.00;101712.38;5036641;28;20442;-59
2022/12/05 00:08:54;;;;;;;16.13;12.77;;;;;;;2.06;100.00;101712.59;5048451;28;20134;-59
2022/12/05 00:11:23;;;;;;;21.35;17.50;;;;;;;2.14;100.00;101722.69;5037807;28;20036;-59
2022/12/05 00:13:49;;;;;;;22.17;19.85;;;;;;;1.91;100.00;101724.97;5049688;28;20029;-59
2022/12/05 00:16:18;;;;;;;17.58;15.70;;;;;;;1.91;100.00;101716.84;5049889;28;20021;-59
2022/12/05 00:18:44;;;;;;;15.27;11.45;;;;;;;2.20;100.00;101713.91;5030483;28;20029;-59
2022/12/05 00:21:20;;;;;;;22.67;20.27;;;;;;;2.19;100.00;101722.22;5032652;28;20020;-59
2022/12/05 00:23:46;;;;;;;18.15;13.95;;;;;;;2.08;100.00;101713.31;5033190;28;20044;-59
2022/12/05 00:26:12;;;;;;;21.77;17.85;;;;;;;2.04;100.00;101708.34;5030069;28;20436;-58
2022/12/05 00:28:38;;;;;;;19.75;17.52;;;;;;;2.08;100.00;101710.59;5029296;28;20017;-59
2022/12/05 00:31:06;;;;;;;14.98;13.15;;;;;;;2.30;100.00;101706.56;5040344;28;20029;-59
2022/12/05 00:33:31;;;;;;;23.13;19.83;;;;;;;2.05;100.00;101708.19;5049283;28;20129;-58
2022/12/05 00:36:04;;;;;;;21.95;18.92;;;;;;;2.10;100.00;101701.47;5048755;28;20071;-59
2022/12/05 00:38:29;;;;;;;20.70;15.52;;;;;;;2.11;100.00;101698.59;5050501;28;20027;-60
2022/12/05 00:40:55;;;;;;;22.85;19.73;;;;;;;2.03;100.00;101701.22;5048488;28;20033;-60
2022/12/05 00:43:20;;;;;;;23.90;21.30;;;;;;;1.94;100.00;101703.00;5047457;28;20579;-59
2022/12/05 00:45:45;;;;;;;17.02;14.77;;;;;;;2.04;100.00;101692.09;5044780;28;20095;-59
2022/12/05 00:48:10;;;;;;;21.83;19.23;;;;;;;2.06;100.00;101701.75;5037019;28;20036;-59
2022/12/05 00:50:36;;;;;;;22.02;19.60;;;;;;;2.23;100.00;101700.06;5030021;28;20045;-58
2022/12/05 00:53:01;;;;;;;18.13;14.57;;;;;;;2.23;100.00;101697.34;5044117;28;20025;-58
2022/12/05 00:55:26;;;;;;;19.58;17.23;;;;;;;2.21;100.00;101698.50;5029497;28;20052;-60
2022/12/05 00:57:51;;;;;;;18.60;16.30;;;;;;;2.24;100.00;101693.63;5029725;28;20480;-60
2022/12/05 01:00:17;;;;;;;18.85;14.48;;;;;;;2.24;100.00;101699.06;5028592;28;20029;-59
2022/12/05 01:02:43;;;;;;;21.48;19.23;;;;;;;2.36;100.00;101687.97;5043770;28;20033;-59
2022/12/05 01:05:08;;;;;;;17.98;15.80;;;;;;;2.41;100.00;101699.19;5042508;28;20053;-58
2022/12/05 01:07:33;;;;;;;20.95;16.73;;;;;;;2.39;100.00;101691.22;5029465;28;20037;-59
2022/12/05 01:09:59;;;;;;;19.05;17.02;;;;;;;2.30;100.00;101687.59;5035796;28;20091;-59
2022/12/05 01:12:24;;;;;;;16.50;14.45;;;;;;;2.73;100.00;101698.59;5042806;28;20033;-59
2022/12/05 01:14:49;;;;;;;19.42;16.48;;;;;;;2.56;100.00;101703.91;5042135;28;20065;-59
2022/12/05 01:17:14;;;;;;;21.85;19.55;;;;;;;2.14;100.00;101702.84;5027731;28;20539;-58
2022/12/05 01:19:40;;;;;;;21.67;19.58;;;;;;;2.74;100.00;101697.59;5047146;28;20037;-59
2022/12/05 01:22:05;;;;;;;23.25;20.83;;;;;;;2.36;100.00;101707.78;5035090;28;20404;-59
2022/12/05 01:24:30;;;;;;;24.70;21.95;;;;;;;2.13;100.00;101707.44;5044583;28;20033;-58
2022/12/05 01:26:56;;;;;;;17.25;13.77;;;;;;;2.32;100.00;101706.41;5032653;28;20021;-59
2022/12/05 01:29:23;;;;;;;22.63;16.83;;;;;;;2.42;100.00;101701.75;5046426;28;20383;-59
2022/12/05 01:31:49;;;;;;;23.95;21.45;;;;;;;2.16;100.00;101714.38;5043286;28;20072;-59
2022/12/05 01:34:16;;;;;;;22.70;20.27;;;;;;;2.40;100.00;101719.19;5040366;28;20048;-59
2022/12/05 01:36:43;;;;;;;15.65;12.98;;;;;;;2.62;100.00;101715.13;5047016;28;20124;-58
2022/12/05 01:39:09;;;;;;;23.90;21.30;;;;;;;2.28;100.00;101726.69;5040961;28;20474;-59
2022/12/05 01:41:38;;;;;;;21.27;19.00;;;;;;;2.58;100.00;101722.72;5038636;28;20025;-59
2022/12/05 01:44:23;;;;;;;20.70;15.65;;;;;;;2.46;100.00;101723.97;5041128;28;20072;-60
2022/12/05 01:46:50;;;;;;;23.17;20.17;;;;;;;2.29;100.00;101731.13;5030050;28;20532;-59
2022/12/05 01:49:18;;;;;;;17.30;14.23;;;;;;;2.52;100.00;101729.63;5047428;28;20017;-59
2022/12/05 01:51:46;;;;;;;21.10;18.15;;;;;;;2.56;100.00;101722.88;5046921;28;20407;-59
2022/12/05 01:54:13;;;;;;;22.65;19.25;;;;;;;2.57;100.00;101726.44;5030697;28;20065;-59
2022/12/05 01:56:43;;;;;;;17.25;14.02;;;;;;;2.72;100.00;101732.16;5028602;28;20041;-59
2022/12/05 01:59:10;;;;;;;23.88;19.70;;;;;;;2.53;100.00;101742.16;5027327;28;20090;-59
2022/12/05 02:01:36;;;;;;;23.15;18.67;;;;;;;2.25;100.00;101738.69;5032053;28;20369;-60
2022/12/05 02:04:03;;;;;;;22.38;19.77;;;;;;;2.52;100.00;101745.88;5040663;28;20033;-59
2022/12/05 02:06:28;;;;;;;23.60;20.40;;;;;;;2.45;100.00;101738.53;5048227;28;20423;-59
2022/12/05 02:08:54;;;;;;;20.30;16.40;;;;;;;2.41;100.00;101738.00;5047401;28;20048;-59
2022/12/05 02:11:22;;;;;;;24.08;20.73;;;;;;;2.44;100.00;101732.28;5047080;28;20071;-58
2022/12/05 02:14:06;;;;;;;24.88;22.20;;;;;;;2.24;100.00;101747.00;5029838;28;20112;-58
2022/12/05 02:16:51;;;;;;;24.05;20.90;;;;;;;2.29;100.00;101739.25;5041399;28;20091;-60
2022/12/05 02:19:41;;;;;;;16.88;12.30;;;;;;;2.72;100.00;101732.16;5028294;28;20033;-58
2022/12/05 02:22:42;;;;;;;25.40;20.80;;;;;;;2.61;100.00;101738.69;5033070;28;20024;-59
2022/12/05 02:25:21;;;;;;;24.33;20.08;;;;;;;2.52;100.00;101735.03;5045900;28;20074;-58
2022/12/05 02:27:49;;;;;;;23.17;18.73;;;;;;;2.46;100.00;101734.81;5036680;28;20030;-59
2022/12/05 02:30:18;;;;;;;26.02;21.92;;;;;;;2.28;100.00;101737.53;5041785;28;20597;-58
2022/12/05 02:33:07;;;;;;;26.33;20.80;;;;;;;2.37;100.00;101735.75;5045157;28;20068;-58
2022/12/05 02:35:47;;;;;;;21.23;15.98;;;;;;;2.50;100.00;101731.66;5045971;28;20040;-58
2022/12/05 02:38:42;;;;;;;19.90;15.40;;;;;;;2.70;100.00;101726.91;5030889;28;20038;-58
2022/12/05 02:41:26;;;;;;;26.27;23.30;;;;;;;2.44;100.00;101724.16;5116607;23;20070;-59
2022/12/05 02:43:59;;;;;;;25.83;21.67;;;;;;;2.50;100.00;101731.66;5095611;28;20034;-59
2022/12/05 02:46:28;;;;;;;24.20;20.30;;;;;;;2.62;100.00;101729.53;5105276;28;20038;-58
2022/12/05 02:48:57;;;;;;;27.85;23.58;;;;;;;2.37;100.00;101733.03;5107479;28;20029;-59
2022/12/05 02:51:29;;;;;;;27.38;20.85;;;;;;;2.23;100.00;101732.59;5106150;28;20381;-59
2022/12/05 02:53:58;;;;;;;20.90;17.17;;;;;;;2.47;100.00;101726.53;5107088;28;20043;-59
2022/12/05 02:56:24;;;;;;;30.65;25.35;;;;;;;2.52;100.00;101745.88;5107876;28;20038;-59
2022/12/05 02:58:53;;;;;;;23.80;18.92;;;;;;;2.65;100.00;101733.81;5106645;28;20038;-59
2022/12/05 03:01:25;;;;;;;28.70;23.30;;;;;;;2.40;100.00;101740.88;5106769;28;20106;-59
2022/12/05 03:03:51;;;;;;;28.23;22.05;;;;;;;2.39;100.00;101742.72;5107999;28;20027;-59
2022/12/05 03:06:25;;;;;;;25.95;20.63;;;;;;;2.52;100.00;101739.63;5088918;28;20033;-59
2022/12/05 03:09:15;;;;;;;30.17;25.48;;;;;;;2.62;100.00;101736.81;5101457;28;20134;-59
2022/12/05 03:11:48;;;;;;;30.13;25.27;;;;;;;2.32;100.00;101742.47;5106925;28;20028;-58
2022/12/05 03:14:24;;;;;;;30.52;21.10;;;;;;;2.32;100.00;101744.34;5106341;28;20527;-58
2022/12/05 03:16:52;;;;;;;29.33;21.50;;;;;;;2.47;100.00;101740.06;5108067;28;20403;-59
2022/12/05 03:20:01;;;;;;;29.35;20.25;;;;;;;2.64;100.00;101734.81;5107203;28;20111;-58
2022/12/05 03:22:42;;;;;;;32.10;24.65;;;;;;;2.38;100.00;101732.88;5087963;28;20036;-59
2022/12/05 03:25:08;;;;;;;29.83;23.15;;;;;;;2.43;100.00;101732.41;5107045;28;20040;-59
2022/12/05 03:27:48;;;;;;;24.58;16.85;;;;;;;2.39;100.00;101736.47;5107219;28;20024;-58
2022/12/05 03:30:16;;;;;;;25.27;16.98;;;;;;;2.68;100.00;101730.75;5106501;28;20078;-58
2022/12/05 03:32:50;;;;;;;28.83;19.88;;;;;;;2.58;100.00;101730.84;5108042;28;20104;-58
2022/12/05 03:35:27;;;;;;;31.70;24.00;;;;;;;2.34;100.00;101737.78;5107732;28;20031;-58
2022/12/05 03:38:05;;;;;;;32.80;24.33;;;;;;;2.40;100.00;101733.59;5106841;28;20032;-60
2022/12/05 03:40:36;;;;;;;33.42;23.48;;;;;;;2.31;100.00;101729.94;5106822;28;20044;-59
2022/12/05 03:43:08;;;;;;;35.33;27.23;;;;;;;2.30;100.00;101732.81;5105001;28;20032;-60
2022/12/05 03:45:57;;;;;;;34.42;26.50;;;;;;;2.26;100.00;101729.56;5104634;28;20042;-59
2022/12/05 03:48:37;;;;;;;33.20;24.10;;;;;;;2.42;100.00;101730.72;5097411;28;20031;-59
2022/12/05 03:51:06;;;;;;;27.08;19.00;;;;;;;2.27;100.00;101738.53;5106787;28;20073;-59
2022/12/05 03:53:39;;;;;;;36.22;26.70;;;;;;;2.27;100.00;101736.69;5107533;28;20020;-58
2022/12/05 03:56:13;;;;;;;33.78;22.98;;;;;;;2.31;100.00;101738.06;5107213;28;20503;-59
2022/12/05 03:58:45;;;;;;;31.77;20.90;;;;;;;2.39;100.00;101734.59;5105790;28;20436;-58
2022/12/05 04:01:15;;;;;;;36.22;26.42;;;;;;;2.36;100.00;101731.34;5096443;28;20028;-58
2022/12/05 04:03:46;;;;;;;38.05;26.30;;;;;;;2.27;100.00;101730.41;5110953;28;20027;-58
2022/12/05 04:06:25;;;;;;;21.27;16.48;;;;;;;2.74;100.00;101730.16;5111347;28;20180;-59
2022/12/05 04:08:57;;;;;;;36.92;27.55;;;;;;;2.31;100.00;101734.50;5089029;28;20243;-58
2022/12/05 04:11:26;;;;;;;35.35;26.42;;;;;;;2.37;100.00;101739.31;5110927;28;20115;-59
2022/12/05 04:13:55;;;;;;;33.00;23.38;;;;;;;2.52;100.00;101743.19;5107555;28;20031;-59
2022/12/05 04:21:36;;;;;;;40.78;28.88;;;;;;;2.24;100.00;101741.56;5108433;28;20089;-59
2022/12/05 04:22:17;;;;;;;40.90;26.63;;;;;;;2.48;100.00;101744.50;5105090;28;20047;-58
2022/12/05 04:27:37;;;;;;;41.88;26.85;;;;;;;2.44;100.00;101744.97;5109632;28;20134;-58
2022/12/05 04:30:11;;;;;;;40.72;27.92;;;;;;;2.47;100.00;101756.34;5107842;28;20020;-58
2022/12/05 04:33:01;;;;;;;36.83;25.30;;;;;;;2.38;100.00;101751.00;5108302;28;20028;-59
2022/12/05 04:35:31;;;;;;;39.33;26.33;;;;;;;2.38;100.00;101748.28;5110222;28;20031;-58
2022/12/05 04:38:05;;;;;;;32.63;20.02;;;;;;;2.56;100.00;101747.28;5108821;28;20028;-59
2022/12/05 04:40:43;;;;;;;44.15;30.20;;;;;;;2.38;100.00;101751.00;5110290;28;20040;-60
2022/12/05 04:43:11;;;;;;;25.42;17.70;;;;;;;2.78;100.00;101740.50;5108817;28;20046;-59
2022/12/05 04:45:39;;;;;;;29.67;20.98;;;;;;;2.91;100.00;101748.25;5106129;28;20058;-59
2022/12/05 04:48:08;;;;;;;;;;;;;;;2.93;100.00;101756.22;5109551;28;20028;-59
2022/12/05 04:50:37;;;;;;;44.88;28.85;;;;;;;2.42;100.00;101757.81;5110301;28;20117;-59
2022/12/05 04:53:03;;;;;;;45.38;30.67;;;;;;;2.36;100.00;101753.88;5109438;28;20040;-58
2022/12/05 04:55:32;;;;;;;39.38;24.67;;;;;;;2.57;100.00;101756.28;5108240;28;20030;-58
2022/12/05 04:58:16;;;;;;;33.25;22.55;;;;;;;2.53;100.00;101753.00;5109344;28;20028;-59
2022/12/05 05:01:10;;;;;;;46.40;29.70;;;;;;;2.68;100.00;101763.31;5108643;28;20023;-59
2022/12/05 05:03:47;;;;;;;42.22;25.30;;;;;;;2.52;100.00;101751.31;5102829;28;20019;-57
2022/12/05 05:06:13;;;;;;;42.83;25.75;;;;;;;2.69;100.00;101746.91;5110249;28;20028;-59
2022/12/05 05:08:51;;;;;;;42.35;26.73;;;;;;;2.47;100.00;101750.94;5106621;28;20027;-58
2022/12/05 05:11:32;;;;;;;53.42;33.15;;;;;;;2.30;100.00;101752.63;5098424;28;20522;-59
2022/12/05 05:13:58;;;;;;;49.72;31.40;;;;;;;2.41;100.00;101743.41;5109184;28;20496;-59
2022/12/05 05:16:29;;;;;;;43.25;25.48;;;;;;;2.53;100.00;101749.44;5109074;28;20039;-59
2022/12/05 05:18:55;;;;;;;48.38;31.38;;;;;;;2.50;100.00;101747.91;5105865;28;20032;-59
2022/12/05 05:21:23;;;;;;;48.92;31.42;;;;;;;2.47;100.00;101759.06;5110140;28;21140;-59
2022/12/05 05:23:48;;;;;;;37.03;22.48;;;;;;;2.77;100.00;101755.06;5107524;28;20020;-59
2022/12/05 05:26:14;;;;;;;48.70;31.33;;;;;;;2.52;100.00;101762.16;5109037;28;20442;-58
2022/12/05 05:28:40;;;;;;;44.58;29.10;;;;;;;2.50;100.00;101761.47;5106428;28;20110;-59
2022/12/05 05:31:05;;;;;;;36.67;21.60;;;;;;;2.62;100.00;101761.22;5109436;28;20020;-59
2022/12/05 05:33:32;;;;;;;41.25;25.50;;;;;;;2.52;100.00;101770.28;5106327;28;20035;-59
2022/12/05 05:36:03;;;;;;;42.85;27.48;;;;;;;2.61;100.00;101763.09;5108647;28;20032;-58
2022/12/05 05:38:29;;;;;;;44.17;27.70;;;;;;;2.56;100.00;101758.13;5107988;28;20527;-59
2022/12/05 05:40:54;;;;;;;45.10;30.40;;;;;;;2.58;100.00;101772.38;5107454;28;20056;-59
2022/12/05 05:43:19;;;;;;;42.95;25.95;;;;;;;2.46;100.00;101765.50;5107879;28;20483;-59
2022/12/05 05:45:44;;;;;;;29.63;18.27;;;;;;;2.80;100.00;101762.91;5109241;28;20019;-59
2022/12/05 05:48:10;;;;;;;43.20;27.88;;;;;;;2.70;100.00;101759.44;5099844;28;20031;-59
2022/12/05 05:50:35;;;;;;;26.90;18.80;;;;;;;2.85;100.00;101765.16;5097656;28;20032;-60
2022/12/05 05:53:00;;;;;;;37.90;21.00;;;;;;;2.86;100.00;101759.56;5090572;28;20030;-59
2022/12/05 05:55:26;;;;;;;41.90;27.95;;;;;;;2.71;100.00;101765.72;5107749;28;20047;-59
2022/12/05 05:57:51;;;;;;;34.28;21.40;;;;;;;2.95;100.00;101759.63;5089226;28;20501;-58
2022/12/05 06:00:16;;;;;;;38.65;26.10;;;;;;;2.74;100.00;101760.84;5107242;28;20024;-58
2022/12/05 06:02:42;;;;;;;39.05;23.42;;;;;;;2.74;100.00;101760.00;5100717;28;20028;-59
2022/12/05 06:05:07;;;;;;;42.50;29.08;;;;;;;2.66;100.00;101771.59;5102873;28;20027;-59
2022/12/05 06:07:32;;;;;;;33.95;20.80;;;;;;;2.71;100.00;101768.44;5106398;28;20024;-60
2022/12/05 06:09:58;;;;;;;41.75;25.60;;;;;;;2.74;100.00;101760.84;5108673;28;20525;-59
2022/12/05 06:12:23;;;;;;;34.22;21.73;;;;;;;2.79;100.00;101776.66;5108676;28;20076;-59
2022/12/05 06:14:49;;;;;;;37.38;22.38;;;;;;;2.77;100.00;101770.50;5106739;28;20027;-58
2022/12/05 06:17:14;;;;;;;27.70;16.58;;;;;;;2.79;100.00;101773.94;5107180;28;20070;-59
2022/12/05 06:19:40;;;;;;;38.42;22.98;;;;;;;2.77;100.00;101784.06;5107673;28;20035;-59
2022/12/05 06:22:05;;;;;;;34.50;23.20;;;;;;;2.72;100.00;101779.13;5107249;28;20509;-59
2022/12/05 06:24:30;;;;;;;41.00;28.10;;;;;;;2.55;100.00;101780.84;5107011;28;20034;-59
2022/12/05 06:26:55;;;;;;;35.40;22.00;;;;;;;2.72;100.00;101776.41;5107980;28;20218;-59
2022/12/05 06:29:21;;;;;;;42.75;27.52;;;;;;;2.57;100.00;101783.38;5088742;28;20028;-59
2022/12/05 06:31:46;;;;;;;34.85;20.70;;;;;;;2.74;100.00;101785.25;5091250;28;20047;-58
2022/12/05 06:34:11;;;;;;;32.67;22.67;;;;;;;2.77;100.00;101778.66;5104472;28;20023;-59
2022/12/05 06:36:37;;;;;;;32.90;21.95;;;;;;;2.79;100.00;101785.63;5105503;28;20023;-58
2022/12/05 06:39:03;;;;;;;42.63;24.85;;;;;;;2.68;100.00;101783.13;5105221;28;20091;-58
2022/12/05 06:41:29;;;;;;;28.75;19.60;;;;;;;2.67;100.00;101792.28;5105591;28;20452;-59
2022/12/05 06:43:55;;;;;;;37.65;26.15;;;;;;;2.80;100.00;101791.91;5077826;28;20119;-58
2022/12/05 06:46:22;;;;;;;37.28;25.10;;;;;;;2.78;100.00;101785.75;5101852;28;20084;-59
2022/12/05 06:48:47;;;;;;;38.08;23.02;;;;;;;2.69;100.00;101794.88;5105530;28;20106;-59
2022/12/05 06:51:15;;;;;;;37.20;26.42;;;;;;;2.64;100.00;101783.63;5105613;28;20651;-59
2022/12/05 06:53:40;;;;;;;29.33;17.50;;;;;;;2.76;100.00;101785.94;5107121;28;20030;-58
2022/12/05 06:56:12;;;;;;;39.50;27.15;;;;;;;2.62;100.00;101788.34;5093214;28;20032;-58
2022/12/05 06:58:42;;;;;;;32.85;23.38;;;;;;;2.81;100.00;101789.03;5086660;28;20047;-59
2022/12/05 07:04:14;;;;;;;36.22;24.20;;;;;;;2.63;100.00;101793.59;5103909;28;20529;-59
2022/12/05 07:06:42;;;;;;;38.78;25.83;;;;;;;2.60;100.00;101791.22;5106506;28;20027;-59
2022/12/05 07:09:08;;;;;;;34.53;25.00;;;;;;;2.69;100.00;101798.44;5106664;28;20073;-59
2022/12/05 07:11:33;;;;;;;36.63;23.45;;;;;;;2.65;100.00;101798.91;5103131;28;20035;-59
2022/12/05 07:13:59;;;;;;;33.03;23.92;;;;;;;2.81;100.00;101801.75;5100913;28;20022;-58
2022/12/05 07:16:24;;;;;;;32.50;23.52;;;;;;;2.77;100.00;101801.19;5101233;28;20122;-59
2022/12/05 07:18:50;;;;;;;31.30;20.50;;;;;;;2.79;100.00;101809.19;5108042;28;20032;-59
2022/12/05 07:21:15;;;;;;;31.23;21.05;;;;;;;2.82;100.00;101812.44;5107356;28;20043;-59
2022/12/05 07:23:43;;;;;;;31.85;23.20;;;;;;;2.93;100.00;101813.19;5105506;28;20130;-59
2022/12/05 07:26:11;;;;;;;33.20;24.15;;;;;;;2.72;100.00;101825.22;5106878;28;20066;-59
2022/12/05 07:28:37;;;;;;;;;;;;;;;3.01;100.00;101822.25;5107545;28;20027;-59
2022/12/05 07:31:08;;;;;;;34.53;23.33;;;;;;;2.91;100.00;101826.06;5107280;28;20594;-59
2022/12/05 07:33:33;;;;;;;34.35;23.27;;;;;;;2.77;100.00;101828.31;5106279;28;20040;-60
2022/12/05 07:36:04;;;;;;;33.53;24.25;;;;;;;2.74;100.00;101820.50;5107230;28;20027;-59
2022/12/05 07:38:29;;;;;;;35.97;23.98;;;;;;;2.76;100.00;101823.06;5111370;28;20494;-59
2022/12/05 07:40:55;;;;;;;32.13;24.13;;;;;;;2.84;100.00;101825.84;5111195;28;20074;-58
2022/12/05 07:43:21;;;;;;;33.25;22.75;;;;;;;2.84;100.00;101823.16;5110745;28;20036;-59
2022/12/05 07:45:46;;;;;;;30.48;21.70;;;;;;;2.92;100.00;101828.63;5109477;28;20034;-58
2022/12/05 07:48:11;;;;;;;31.60;23.15;;;;;;;2.89;100.00;101828.06;5111332;28;20023;-59
2022/12/05 07:50:36;;;;;;;30.55;22.95;;;;;;;2.79;100.00;101825.47;5110833;28;20078;-58
2022/12/05 07:53:02;;;;;;;32.40;22.80;;;;;;;2.78;100.00;101830.03;5111378;28;20030;-59
2022/12/05 07:55:27;;;;;;;33.58;22.88;;;;;;;2.97;100.00;101830.88;5111268;28;20114;-59
2022/12/05 07:57:53;;;;;;;31.95;23.27;;;;;;;2.80;100.00;101836.16;5110266;28;20039;-59
2022/12/05 08:00:18;;;;;;;31.88;21.08;;;;;;;2.91;100.00;101835.06;5109174;28;20015;-59
2022/12/05 08:02:44;;;;;;;27.75;21.13;;;;;;;2.92;100.00;101833.19;5110283;28;20031;-59
2022/12/05 08:05:09;;;;;;;32.90;23.10;;;;;;;2.83;100.00;101838.53;5111037;28;20019;-59
2022/12/05 08:07:34;;;;;;;33.83;23.08;;;;;;;2.85;100.00;101839.25;5111244;28;20107;-59
2022/12/05 08:10:00;;;;;;;29.25;20.33;;;;;;;3.04;100.00;101848.22;5109820;28;20027;-59
2022/12/05 08:12:25;;;;;;;28.58;20.90;;;;;;;2.99;100.00;101847.84;5108528;28;20019;-59
2022/12/05 08:14:50;;;;;;;29.40;21.58;;;;;;;2.99;100.00;101850.56;5091481;28;20072;-58
2022/12/05 08:17:16;;;;;;;32.58;23.63;;;;;;;2.89;100.00;101847.94;5105880;28;20175;-59
2022/12/05 08:19:42;;;;;;;28.02;20.10;;;;;;;3.02;100.00;101856.53;5109134;28;20015;-59
2022/12/05 08:22:07;;;;;;;32.70;23.08;;;;;;;2.96;100.00;101851.72;5109062;28;20030;-59
2022/12/05 08:24:32;;;;;;;33.95;24.00;;;;;;;2.92;100.00;101857.63;5093881;28;20032;-59
2022/12/05 08:26:57;;;;;;;30.42;20.98;;;;;;;2.92;100.00;101861.19;5090236;28;20107;-59
2022/12/05 08:29:23;;;;;;;32.47;22.38;;;;;;;2.92;100.00;101863.91;5096602;27;20028;-58
2022/12/05 08:31:50;;;;;;;32.97;24.27;;;;;;;2.96;100.00;101861.75;5096610;27;20480;-58
2022/12/05 08:34:17;;;;;;;31.08;22.55;;;;;;;2.92;100.00;101861.19;5083876;28;20031;-59
2022/12/05 08:36:43;;;;;;;32.77;23.70;;;;;;;2.96;100.00;101867.16;5086911;27;20019;-58
2022/12/05 08:39:13;;;;;;;33.92;23.10;;;;;;;2.96;100.00;101872.59;5088982;28;20036;-59
2022/12/05 08:41:39;;;;;;;31.05;23.38;;;;;;;2.95;100.00;101870.88;5076522;28;20040;-58
2022/12/05 08:44:06;;;;;;;32.55;23.17;;;;;;;2.95;100.00;101866.31;5088414;28;20039;-58
2022/12/05 08:46:34;;;;;;;32.47;23.38;;;;;;;2.97;100.00;101872.44;5093986;27;20949;-59
2022/12/05 08:49:00;;;;;;;31.90;21.95;;;;;;;3.04;100.00;101873.53;5082229;28;21282;-59
2022/12/05 08:51:25;;;;;;;31.65;22.88;;;;;;;2.99;100.00;101872.25;5083907;28;20150;-59
2022/12/05 08:53:50;;;;;;;31.58;23.02;;;;;;;3.02;100.00;101875.53;5087549;28;20489;-59
2022/12/05 08:56:16;;;;;;;31.75;23.48;;;;;;;3.04;100.00;101880.78;5082728;28;20027;-59
2022/12/05 08:58:41;;;;;;;35.00;23.58;;;;;;;3.03;100.00;101874.50;5100542;27;20061;-57
2022/12/05 09:01:10;;;;;;;31.05;22.48;;;;;;;3.12;100.00;101872.72;5087002;28;20482;-56
2022/12/05 09:03:36;;;;;;;30.58;23.23;;;;;;;3.04;100.00;101869.94;5094769;28;20658;-59
2022/12/05 09:06:12;;;;;;;32.15;23.67;;;;;;;3.08;100.00;101883.03;5095391;28;20031;-60
2022/12/05 09:08:39;;;;;;;31.50;22.05;;;;;;;3.09;100.00;101878.47;5084507;28;20078;-58
2022/12/05 09:11:10;;;;;;;34.83;23.08;;;;;;;3.11;100.00;101880.03;5089306;28;20036;-58
2022/12/05 09:13:36;;;;;;;34.63;23.73;;;;;;;3.08;100.00;101887.59;5090016;28;20059;-59
2022/12/05 09:16:13;;;;;;;32.72;23.15;;;;;;;3.11;100.00;101887.31;5082970;28;20123;-58
2022/12/05 09:18:39;;;;;;;31.75;24.63;;;;;;;3.07;100.00;101889.47;5077674;28;20024;-59
2022/12/05 09:21:12;;;;;;;33.25;23.25;;;;;;;3.15;100.00;101893.28;5089834;28;20062;-59
2022/12/05 09:23:38;;;;;;;29.95;22.67;;;;;;;3.20;100.00;101897.25;5086639;28;20155;-59
2022/12/05 09:26:06;;;;;;;31.23;22.33;;;;;;;3.16;100.00;101890.41;5090302;28;20062;-58
2022/12/05 09:28:32;;;;;;;30.73;21.43;;;;;;;3.17;100.00;101902.97;5082959;28;20029;-58
2022/12/05 09:31:00;;;;;;;31.17;22.88;;;;;;;3.16;100.00;101903.13;5097067;28;20031;-59
2022/12/05 09:33:26;;;;;;;31.00;23.40;;;;;;;3.15;100.00;101905.00;5094482;28;20073;-58
2022/12/05 09:35:51;;;;;;;27.38;19.73;;;;;;;3.34;100.00;101906.66;5085162;28;20066;-59
2022/12/05 09:38:17;;;;;;;29.42;21.38;;;;;;;3.19;100.00;101908.22;5088986;28;20024;-58
2022/12/05 09:40:42;;;;;;;32.90;23.35;;;;;;;3.15;100.00;101909.56;5087485;28;20055;-59
2022/12/05 09:43:30;;;;;;;29.67;22.65;;;;;;;3.18;100.00;101918.25;5084921;28;20089;-59
2022/12/05 09:46:20;;;;;;;29.15;20.98;;;;;;;3.24;100.00;101916.75;5085197;28;24802;-59
2022/12/05 09:48:46;;;;;;;31.40;22.83;;;;;;;3.20;100.00;101909.97;5088486;27;20028;-58
2022/12/05 09:51:12;;;;;;;29.10;22.20;;;;;;;3.20;100.00;101907.25;5103472;28;20023;-59
2022/12/05 09:53:42;;;;;;;33.17;24.15;;;;;;;3.20;100.00;101908.09;5089824;28;20027;-57
2022/12/05 09:56:07;;;;;;;31.48;23.05;;;;;;;3.21;100.00;101911.66;5093018;28;20047;-59
2022/12/05 09:58:44;;;;;;;29.30;21.20;;;;;;;3.24;100.00;101916.75;5099263;28;20023;-59
2022/12/05 10:01:34;;;;;;;24.00;18.50;;;;;;;3.24;100.00;101919.47;5083585;28;20815;-59
2022/12/05 10:04:11;;;;;;;24.45;18.65;;;;;;;3.26;100.00;101914.75;5107402;28;20118;-59
2022/12/05 10:06:49;;;;;;;21.92;17.27;;;;;;;3.24;100.00;101919.47;5105543;28;20023;-58
2022/12/05 10:09:40;;;;;;;19.05;14.43;;;;;;;3.23;100.00;101918.63;5104735;28;20023;-58
2022/12/05 10:12:24;;;;;;;17.67;13.52;;;;;;;3.19;100.00;101914.50;5067667;28;20020;-58
2022/12/05 10:15:02;;;;;;;16.30;12.88;;;;;;;3.20;100.00;101918.94;5105988;28;20063;-59
2022/12/05 10:17:34;;;;;;;16.17;13.05;;;;;;;3.18;100.00;101920.09;5107015;28;20027;-58
2022/12/05 10:20:04;;;;;;;16.65;12.63;;;;;;;3.19;100.00;101919.09;5107428;28;20026;-58
2022/12/05 10:22:43;;;;;;;16.65;13.50;;;;;;;3.21;100.00;101917.09;5108037;28;20031;-58
2022/12/05 10:25:11;;;;;;;18.90;14.02;;;;;;;3.15;100.00;101915.00;5106025;28;20026;-58
2022/12/05 10:27:41;;;;;;;18.08;14.40;;;;;;;3.14;100.00;101914.13;5106495;28;20064;-58
2022/12/05 10:30:16;;;;;;;18.98;14.93;;;;;;;3.16;100.00;101917.56;5106779;28;20026;-58
2022/12/05 10:32:55;;;;;;;17.38;14.18;;;;;;;3.17;100.00;101924.69;5096846;28;20038;-59
2022/12/05 10:35:35;;;;;;;18.75;14.40;;;;;;;3.12;100.00;101917.00;5096452;28;20028;-59
2022/12/05 10:38:08;;;;;;;16.98;13.82;;;;;;;3.15;100.00;101915.00;5108920;28;20401;-59
2022/12/05 10:40:43;;;;;;;16.75;13.93;;;;;;;3.16;100.00;101922.13;5108103;28;20421;-59
2022/12/05 10:43:15;;;;;;;19.65;14.77;;;;;;;3.17;100.00;101924.69;5107479;28;20060;-58
2022/12/05 10:45:43;;;;;;;16.80;13.18;;;;;;;3.15;100.00;101918.56;5107768;28;20020;-59
2022/12/05 10:48:12;;;;;;;;;;;;;;;3.25;100.00;101922.06;5107768;28;20080;-59
2022/12/05 10:50:41;;;;;;;20.00;13.52;;;;;;;3.23;100.00;101924.06;5102658;28;20012;-59
2022/12/05 10:53:07;;;;;;;16.85;13.65;;;;;;;3.27;100.00;101925.44;5106934;28;20031;-58
2022/12/05 10:55:51;;;;;;;17.90;14.07;;;;;;;3.33;100.00;101924.81;5106454;28;20034;-58
2022/12/05 10:58:24;;;;;;;18.60;14.48;;;;;;;3.33;100.00;101913.09;5104831;28;20023;-59
2022/12/05 11:00:52;;;;;;;17.55;13.45;;;;;;;3.39;100.00;101917.91;5086483;28;20020;-58
2022/12/05 11:03:24;;;;;;;18.30;13.90;;;;;;;3.44;100.00;101917.44;5085832;28;20497;-58
2022/12/05 11:05:52;;;;;;;17.70;12.85;;;;;;;3.44;100.00;101921.00;5102404;28;20173;-58
2022/12/05 11:08:35;;;;;;;15.57;12.73;;;;;;;3.49;100.00;101910.50;5099883;28;20073;-58
2022/12/05 11:11:04;;;;;;;15.40;12.32;;;;;;;3.45;100.00;101906.44;5092696;28;20424;-58
2022/12/05 11:13:29;;;;;;;15.60;12.50;;;;;;;3.44;100.00;101912.84;5107609;28;20114;-59
2022/12/05 11:15:55;;;;;;;15.23;12.13;;;;;;;3.44;100.00;101910.13;5110496;28;20115;-59
2022/12/05 11:18:23;;;;;;;16.77;13.02;;;;;;;3.40;100.00;101908.78;5082949;28;20570;-58
2022/12/05 11:20:48;;;;;;;;;;;;;;;3.48;100.00;101906.09;5109783;28;20043;-59
2022/12/05 11:23:23;;;;;;;17.27;13.03;;;;;;;3.42;100.00;101901.31;5109227;28;19919;-59
2022/12/05 11:25:49;;;;;;;15.13;11.30;;;;;;;3.37;100.00;101898.22;5101145;28;20289;-58
2022/12/05 11:28:20;;;;;;;15.48;11.63;;;;;;;3.33;100.00;101905.81;5100086;28;20019;-58
2022/12/05 11:30:55;;;;;;;14.73;11.60;;;;;;;3.26;100.00;101912.88;5110384;28;20628;-58